Baker, Illinois
Current Conditions -  °F | °C
As of 4:52 AM on Tuesday 21 Oct 2014 (Local Time) from KARR Reporting Station
Overcast Overcast  
Wind Chill: 45°   Ceiling: 4500
Heat Index: 47°   Visibility: 10mi
Dew Point: 42°   Wind: 5mph
Humidity: 83%   Direction: 330°NNW
Pressure: 30.06"   Gusts: NA
Location:  41.5827°N, 88.7731°W
Report Text: KARR 210952Z AUTO 33004KT 10SM OVC045 08/06 A3006 RMK AO2 SLP180 T00830056
Loading
Personal Weather Stations






























Interactive Weather Map
Tropical Storm Tracking
New forecast layout! Learn more

10-Day Weather Forecast

Advertisements
Track Severe Weather on mobile